KMOD

Modesto City-Co-Harry Sham Field Airport

Modesto, California, USA
METAR KMOD 190853Z AUTO 00000KT 10SM CLR 15/09 A2984 RMK AO2 SLP105 T01500089 51003
Observed Flight Rules
Sep-19 @ 08:53 UTC (11 minutes ago) Visual Flight Rules
Visibility Clouds
10 miles
  • Clear skies
Temperatures Readings
Current 15°C / 59°F
Dewpoint 9°C / 48°F
Humidity 68%
Altimeter 29.84" Hg
Pressure 1010.5 hPa
Elevation 29
METAR KMOD 190853Z AUTO 00000KT 10SM CLR 15/09 A2984 RMK AO2 SLP105 T01500089 51003
Observed Flight Rules
Sep-19 @ 08:53 UTC
(11 minutes ago)
VFR
Clouds
  • Clear skies
Temperature Dewpoint
15°C / 59°F 9°C / 48°F
Humidity Altimeter Pressure
68% 29.84" Hg 1010.5 hPa